Storm Events Database

Event Details

Event Hail
Magnitude 0.75 in.
State NEW YORK
County/Area SCHUYLER
WFO BGM
Report Source Public
NCDC Data Source CSV
Begin Date 2007-08-03 14:15:00.0 EST-5
Begin Location 0N MONTOUR FALLS
Begin Lat/Lon 42.35/-76.85
End Date 2007-08-03 14:15:00.0 EST-5
Deaths Direct/Indirect 0/0 (fatality details below, when available...)
Injuries Direct/Indirect 0/0
Property Damage 0.00K
Crop Damage 0.00K
Episode Narrative Showers and thunderstorms developed across upstate New York and northeast Pennsylvania ahead of a slow moving cold front that extended from southern Ontario to lower Michigan. The airmass ahead of this front was warm and unstable, and with the aid of an upper level disturbance, severe thunderstorms developed over the area. Some of the storms produced very large hail and damaging winds.
Event Narrative


     ‚Äč



All events for this episode:

Location County/Zone St. Date Time T.Z. Type Mag Dth Inj PrD CrD
Totals: 0 1 66.00K 10.00K
CANASTOTA MADISON CO. NY 08/03/2007 12:49 EST-5 Hail 0.88 in. 0 0 0.00K 0.00K
VERONA ONEIDA CO. NY 08/03/2007 12:49 EST-5 Hail 0.75 in. 0 0 0.00K 0.00K
VERONA ONEIDA CO. NY 08/03/2007 13:00 EST-5 Hail 0.75 in. 0 0 0.00K 0.00K
CORNING STEUBEN CO. NY 08/03/2007 13:03 EST-5 Hail 1.00 in. 0 0 0.00K 0.00K
ONEIDA MADISON CO. NY 08/03/2007 13:09 EST-5 Hail 0.75 in. 0 0 0.00K 0.00K
BIG FLATS CHEMUNG CO. NY 08/03/2007 13:25 EST-5 Hail 0.75 in. 0 0 0.00K 0.00K
KIRKLAND ONEIDA CO. NY 08/03/2007 13:25 EST-5 Hail 0.88 in. 0 0 0.00K 0.00K
WHITESBORO ONEIDA CO. NY 08/03/2007 13:35 EST-5 Hail 0.75 in. 0 0 0.00K 0.00K
NEW HARTFORD ONEIDA CO. NY 08/03/2007 13:37 EST-5 Hail 0.88 in. 0 0 0.00K 0.00K
NEW HARTFORD ONEIDA CO. NY 08/03/2007 13:40 EST-5 Hail 1.00 in. 0 0 0.00K 0.00K
UTICA ONEIDA CO. NY 08/03/2007 13:45 EST-5 Hail 0.88 in. 0 0 0.00K 0.00K
PAINTED POST STEUBEN CO. NY 08/03/2007 13:49 EST-5 Hail 1.00 in. 0 0 0.00K 0.00K
WHITESBORO ONEIDA CO. NY 08/03/2007 13:52 EST-5 Hail 0.75 in. 0 0 0.00K 0.00K
PAINTED POST STEUBEN CO. NY 08/03/2007 14:00 EST-5 Hail 1.00 in. 0 0 0.00K 0.00K
STOCKBRIDGE MADISON CO. NY 08/03/2007 14:00 EST-5 Thunderstorm Wind 50 kts. EG 0 0 0.00K 10.00K
MONTOUR FALLS SCHUYLER CO. NY 08/03/2007 14:15 EST-5 Hail 0.75 in. 0 0 0.00K 0.00K
WATERVILLE ONEIDA CO. NY 08/03/2007 14:15 EST-5 Thunderstorm Wind 60 kts. EG 0 0 10.00K 0.00K
TIOGA CENTER TIOGA CO. NY 08/03/2007 14:35 EST-5 Hail 0.75 in. 0 0 0.00K 0.00K
APALACHIN TIOGA CO. NY 08/03/2007 14:40 EST-5 Hail 1.00 in. 0 0 0.00K 0.00K
BRIDGEWATER ONEIDA CO. NY 08/03/2007 14:40 EST-5 Thunderstorm Wind 50 kts. EG 0 0 2.00K 0.00K
VESTAL BROOME CO. NY 08/03/2007 14:43 EST-5 Hail 0.75 in. 0 0 0.00K 0.00K
ONEIDA MADISON CO. NY 08/03/2007 14:56 EST-5 Hail 1.25 in. 0 0 0.00K 0.00K
UTICA ONEIDA CO. NY 08/03/2007 15:10 EST-5 Hail 0.75 in. 0 0 0.00K 0.00K
OTEGO OTSEGO CO. NY 08/03/2007 15:15 EST-5 Hail 0.75 in. 0 0 0.00K 0.00K
STITTVILLE ONEIDA CO. NY 08/03/2007 15:18 EST-5 Hail 1.00 in. 0 0 0.00K 0.00K
OTEGO OTSEGO CO. NY 08/03/2007 15:21 EST-5 Hail 1.00 in. 0 0 0.00K 0.00K
NEW YORK MILLS ONEIDA CO. NY 08/03/2007 15:24 EST-5 Hail 0.88 in. 0 0 0.00K 0.00K
TUSTEN SULLIVAN CO. NY 08/03/2007 15:35 EST-5 Thunderstorm Wind 50 kts. EG 0 0 2.00K 0.00K
NEW HARTFORD ONEIDA CO. NY 08/03/2007 15:36 EST-5 Hail 1.25 in. 0 0 0.00K 0.00K
JASPER STEUBEN CO. NY 08/03/2007 15:45 EST-5 Hail 1.00 in. 0 0 0.00K 0.00K
SOUTH BAY MADISON CO. NY 08/03/2007 15:50 EST-5 Hail 1.00 in. 0 0 0.00K 0.00K
ONEONTA F AND F ARPT OTSEGO CO. NY 08/03/2007 16:00 EST-5 Thunderstorm Wind 50 kts. EG 0 0 5.00K 0.00K
UNADILLA OTSEGO CO. NY 08/03/2007 16:13 EST-5 Hail 1.25 in. 0 0 0.00K 0.00K
WESTMORELAND ONEIDA CO. NY 08/03/2007 16:19 EST-5 Hail 1.00 in. 0 0 0.00K 0.00K
GUILFORD CHENANGO CO. NY 08/03/2007 16:21 EST-5 Hail 0.88 in. 0 0 0.00K 0.00K
TYLERTOWN SULLIVAN CO. NY 08/03/2007 16:30 EST-5 Thunderstorm Wind 50 kts. EG 0 0 1.00K 0.00K
CANASTOTA MADISON CO. NY 08/03/2007 16:37 EST-5 Hail 2.50 in. 0 0 20.00K 0.00K
GILBERTSVILLE OTSEGO CO. NY 08/03/2007 16:40 EST-5 Thunderstorm Wind 60 kts. EG 0 0 0.00K 0.00K
VERONA ONEIDA CO. NY 08/03/2007 16:45 EST-5 Flood 0 0 1.00K 0.00K
CANASTOTA MADISON CO. NY 08/03/2007 17:00 EST-5 Hail 1.00 in. 0 0 0.00K 0.00K
DAMS CORNERS ONEIDA CO. NY 08/03/2007 17:09 EST-5 Hail 1.00 in. 0 0 0.00K 0.00K
CLINTON ONEIDA CO. NY 08/03/2007 17:19 EST-5 Hail 0.75 in. 0 0 0.00K 0.00K
SULLIVAN MADISON CO. NY 08/03/2007 17:32 EST-5 Hail 1.25 in. 0 0 0.00K 0.00K
HUNTS CORNERS SULLIVAN CO. NY 08/03/2007 17:40 EST-5 Hail 1.00 in. 0 0 0.00K 0.00K
FOSTERDALE SULLIVAN CO. NY 08/03/2007 17:45 EST-5 Thunderstorm Wind 50 kts. EG 0 0 0.00K 0.00K
PT ROCK ONEIDA CO. NY 08/03/2007 17:52 EST-5 Hail 0.75 in. 0 0 0.00K 0.00K
UNADILLA FORKS OTSEGO CO. NY 08/03/2007 18:24 EST-5 Thunderstorm Wind 50 kts. EG 0 0 3.00K 0.00K
RIPPLETON MADISON CO. NY 08/03/2007 18:43 EST-5 Hail 1.00 in. 0 0 0.00K 0.00K
POMPEY CENTER ONONDAGA CO. NY 08/03/2007 18:45 EST-5 Hail 0.75 in. 0 0 0.00K 0.00K
POMPEY ONONDAGA CO. NY 08/03/2007 18:50 EST-5 Hail 0.88 in. 0 0 0.00K 0.00K
RICHFIELD SPGS OTSEGO CO. NY 08/03/2007 18:52 EST-5 Thunderstorm Wind 50 kts. EG 0 0 1.00K 0.00K
EDMESTON OTSEGO CO. NY 08/03/2007 19:20 EST-5 Thunderstorm Wind 50 kts. EG 0 1 3.00K 0.00K
ONEIDA MADISON CO. NY 08/03/2007 19:25 EST-5 Hail 1.00 in. 0 0 0.00K 0.00K
STOCKBRIDGE MADISON CO. NY 08/03/2007 19:26 EST-5 Hail 0.75 in. 0 0 0.00K 0.00K
PITTSFIELD OTSEGO CO. NY 08/03/2007 19:30 EST-5 Thunderstorm Wind 50 kts. EG 0 0 2.00K 0.00K
VERNON ONEIDA CO. NY 08/03/2007 19:48 EST-5 Hail 1.25 in. 0 0 0.00K 0.00K
EARLVILLE CHENANGO CO. NY 08/03/2007 19:56 EST-5 Hail 1.75 in. 0 0 15.00K 0.00K
HOLLAND PATENT ONEIDA CO. NY 08/03/2007 20:01 EST-5 Hail 0.75 in. 0 0 0.00K 0.00K
VERNON ONEIDA CO. NY 08/03/2007 20:03 EST-5 Hail 1.00 in. 0 0 0.00K 0.00K
GUILFORD CHENANGO CO. NY 08/03/2007 20:34 EST-5 Hail 0.88 in. 0 0 0.00K 0.00K
NEW YORK MILLS ONEIDA CO. NY 08/03/2007 20:34 EST-5 Hail 0.88 in. 0 0 0.00K 0.00K
NEW YORK MILLS ONEIDA CO. NY 08/03/2007 20:34 EST-5 Hail 0.88 in. 0 0 0.00K 0.00K
WINDSOR BROOME CO. NY 08/03/2007 21:10 EST-5 Thunderstorm Wind 50 kts. EG 0 0 1.00K 0.00K
Totals: 0 1 66.00K 10.00K